Plymouth Light

42° 00' 12"N, 70° 36' 04"W, Elevation 54 ft.
Eastern Time

Hourly observations for the last 72 hours

Date Time Temperature (°F) Humi-
dity

(%)
Wind
(mph)
Pressure Rain (in) Sun
(W/m2)
ET
(in)
Air Dew 6 Hour 1 Hr 3 Hr 6 Hr Day
Alt
(in)
Sea
Level

(mb)
Max Min
16 12:00 78.5 69.5 74 S 3 G 6 30.01 1016.3 0.00 879 0.059
16 11:00 75.0 65.8 73 ENE 2 G 3 30.01 1016.4 0.00 812 0.040
16 10:00 74.2 65.0 73 NE 3 G 5 30.02 1016.8 0.00 691 0.025
16 09:00 72.3 66.5 82 W 1 G 4 30.03 1017.0 0.00 538 0.015
16 08:00 69.3 64.3 69.3 65.2 84 W 1 G 4 30.02 1016.8 0.00 338 0.009
16 07:00 66.6 62.6 87 W 4 G 5 30.01 1016.4 0.00 171 0.006
16 06:00 65.6 62.3 89 W 5 G 7 30.00 1016.0 0.00 42 0.005
16 05:00 65.6 62.3 89 W 5 G 8 29.99 1015.6 0.00 0 0.004
16 04:00 66.5 62.5 87 W 5 G 8 29.98 1015.4 0.00 0 0.003
16 03:00 67.4 62.7 85 W 6 G 9 29.98 1015.3 0.00 0 0.002
16 02:00 69.0 65.0 73.5 69.0 87 W 4 G 6 29.99 1015.5 0.00 0 0.001
16 01:00 69.6 64.2 83 W 3 G 7 29.99 1015.4 0.00 0 0.000
16 00:00 70.3 64.9 83 W 3 G 6 29.98 1015.4 0.00 0 0.212
15 23:00 71.0 64.5 80 W 2 G 4 29.97 1014.9 0.00 0 0.211
15 22:00 72.2 62.7 72 SSW 1 G 3 29.97 1014.8 0.00 0 0.210
15 21:00 72.2 65.3 79 SSW 3 G 5 29.95 1014.4 0.00 0 0.209
15 20:00 73.2 65.6 77.6 73.2 77 S 3 G 9 29.94 1014.1 0.00 12 0.207
15 19:00 74.2 65.8 75 S 4 G 6 29.94 1013.9 0.00 63 0.201
15 18:00 75.5 67.4 76 S 4 G 7 29.93 1013.5 0.00 206 0.192
15 17:00 76.4 65.5 69 E 2 G 5 29.93 1013.5 0.00 483 0.177
15 16:00 77.3 61.4 58 NNE 4 G 6 29.93 1013.5 0.00 642 0.158
15 15:00 77.1 62.6 61 NNE 7 G 9 29.94 1013.8 0.00 773 0.136
15 14:00 77.3 63.3 78.4 70.7 62 NNE 3 G 8 29.95 1014.2 0.00 860 0.113
15 13:00 75.9 64.2 67 NNE 5 G 9 29.96 1014.5 0.00 904 0.090
15 12:00 75.6 64.3 68 NNE 4 G 11 29.97 1014.8 0.00 896 0.067
15 11:00 76.6 60.7 58 NW 7 G 11 29.97 1014.8 0.00 835 0.046
15 10:00 75.3 60.5 60 NNW 4 G 12 29.97 1014.9 0.00 703 0.029
15 09:00 72.8 61.6 68 NNW 5 G 11 29.96 1014.7 0.00 554 0.018
15 08:00 70.7 61.6 70.7 66.2 73 NNW 5 G 10 29.97 1014.9 0.00 346 0.011
15 07:00 68.1 61.0 78 NW 4 G 12 29.96 1014.5 0.00 181 0.007
15 06:00 66.4 60.7 82 NW 2 G 6 29.95 1014.3 0.00 74 0.006
15 05:00 66.8 60.1 79 NW 4 G 9 29.94 1013.9 0.00 0 0.005
15 04:00 68.2 60.4 76 NNW 3 G 9 29.92 1013.3 0.00 0 0.004
15 03:00 69.5 60.5 73 N 4 G 10 29.91 1012.8 0.00 0 0.003
15 02:00 70.7 60.8 79.7 70.6 71 NNW 4 G 9 29.91 1012.9 0.00 0 0.002
15 01:00 71.5 63.5 76 N 6 G 12 29.90 1012.4 0.00 0 0.000
15 00:00 72.7 64.7 76 NNW 5 G 11 29.89 1012.3 0.00 0 0.179
14 23:00 73.5 67.3 81 N 7 G 12 29.88 1011.8 0.00 0 0.178
14 22:00 75.0 67.7 78 N 3 G 7 29.86 1011.3 0.00 0 0.177
14 21:00 76.7 67.4 73 N 3 G 5 29.84 1010.5 0.00 0 0.176
14 20:00 79.6 67.7 84.8 75.7 67 N 3 G 6 29.82 1009.7 0.00 16 0.173
14 19:00 83.5 70.5 65 NW 3 G 9 29.80 1009.1 0.00 105 0.168
14 18:00 79.1 72.4 80 SSE 1 G 4 29.79 1008.7 0.00 311 0.160
14 17:00 78.2 71.5 80 ESE 6 G 8 29.78 1008.6 0.00 496 0.147
14 16:00 77.5 70.1 78 S 9 G 12 29.78 1008.5 0.00 445 0.132
14 15:00 78.4 71.0 78 S 5 G 8 29.78 1008.6 0.00 773 0.111
14 14:00 77.6 70.6 86.8 72.2 79 ESE 5 G 9 29.79 1008.8 0.00 840 0.091
14 13:00 84.4 70.0 62 WNW 7 G 12 29.80 1009.0 0.00 155 0.073
14 12:00 85.6 71.6 63 WNW 3 G 7 29.80 1009.3 0.00 840 0.056
14 11:00 82.0 70.8 69 WNW 7 G 10 29.81 1009.5 0.00 798 0.038
14 10:00 80.4 71.8 75 WSW 2 G 5 29.81 1009.7 0.00 891 0.022
14 09:00 76.6 71.4 84 W 1 G 7 29.82 1010.0 0.00 538 0.012
14 08:00 72.2 68.8 72.3 68.8 89 W 6 G 9 29.82 1010.0 0.00 350 0.006
14 07:00 69.9 68.1 94 W 5 G 10 29.82 1009.9 0.00 120 0.004
14 06:00 69.6 68.1 95 W 4 G 8 29.82 1009.8 0.00 33 0.003
14 05:00 69.5 67.7 94 WSW 5 G 9 29.81 1009.5 0.00 0 0.003
14 04:00 69.1 67.3 94 WSW 5 G 8 29.81 1009.3 0.00 0 0.003
14 03:00 70.5 67.7 91 WSW 4 G 7 29.81 1009.4 0.00 0 0.002
14 02:00 71.0 67.9 75.9 70.6 90 W 4 G 8 29.83 1010.0 0.00 0 0.001
14 01:00 71.4 68.0 89 WSW 4 G 9 29.82 1010.0 0.00 0 0.000
14 00:00 71.5 67.4 87 W 4 G 8 29.84 1010.7 0.00 0 0.190
13 23:00 71.9 67.8 87 WSW 4 G 8 29.84 1010.6 0.00 0 0.189
13 22:00 71.2 67.5 88 SW 5 G 8 29.83 1010.4 0.00 0 0.188
13 21:00 72.6 67.8 85 SW 8 G 10 29.82 1009.9 0.00 0 0.187
13 20:00 75.9 68.9 79.7 74.1 79 SW 3 G 7 29.81 1009.6 0.00 14 0.185
13 19:00 78.5 69.5 74 WSW 3 G 11 29.80 1009.3 0.00 120 0.179
13 18:00 79.5 70.1 73 WSW 7 G 13 29.80 1009.3 0.00 301 0.170
13 17:00 75.7 70.2 83 S 9 G 12 29.81 1009.4 0.00 485 0.156
13 16:00 74.5 69.0 83 S 7 G 19 29.82 1009.7 0.00 160 0.140
13 15:00 75.9 69.3 80 SSE 5 G 14 29.83 1010.2 0.00 756 0.120
13 14:00 77.0 70.0 77.1 72.0 79 SE 3 G 5 29.84 1010.5 0.00 844 0.099
13 13:00 74.8 67.9 79 ESE 4 G 7 29.85 1010.8 0.00 914 0.077

Data generated by WxSolution Version 1.9.1.1, Build 2017.11.27.